createdAt,value
2023-05-30T00:02:17.988Z,15.52
2023-05-30T00:04:46.194Z,15.38
2023-05-30T00:07:15.374Z,15.45
2023-05-30T00:09:42.413Z,15.41
2023-05-30T00:12:12.182Z,15.35
2023-05-30T00:14:39.765Z,15.34
2023-05-30T00:17:07.043Z,15.35
2023-05-30T00:19:34.146Z,15.24
2023-05-30T00:22:01.642Z,15.36
2023-05-30T00:24:30.450Z,15.27
2023-05-30T00:26:58.778Z,15.29
2023-05-30T00:29:25.671Z,14.97
2023-05-30T00:31:52.488Z,15.07
2023-05-30T00:34:19.434Z,15.23
2023-05-30T00:36:46.421Z,15.18
2023-05-30T00:39:16.705Z,15.16
2023-05-30T00:41:44.788Z,15.15
2023-05-30T00:44:12.741Z,15.13
2023-05-30T00:46:40.875Z,15.08
2023-05-30T00:49:08.299Z,15.04
2023-05-30T00:51:34.868Z,14.87
2023-05-30T00:54:03.355Z,14.95
2023-05-30T00:56:32.737Z,14.97
2023-05-30T00:59:05.519Z,14.92
2023-05-30T01:01:39.392Z,14.23
2023-05-30T01:04:10.999Z,14.23
2023-05-30T01:06:40.912Z,14.30
2023-05-30T01:09:08.166Z,14.71
2023-05-30T01:12:06.194Z,14.86
2023-05-30T01:14:39.618Z,14.61
2023-05-30T01:17:24.577Z,14.65
2023-05-30T01:20:12.674Z,14.62
2023-05-30T01:22:59.731Z,14.57
2023-05-30T01:25:59.377Z,14.57
2023-05-30T01:28:29.743Z,14.35
2023-05-30T01:30:59.532Z,14.31
2023-05-30T01:33:28.327Z,14.49
2023-05-30T01:35:56.106Z,14.45
2023-05-30T01:38:24.924Z,14.42
2023-05-30T01:40:56.001Z,14.33
2023-05-30T01:43:46.360Z,14.22
2023-05-30T01:46:31.687Z,14.21
2023-05-30T01:49:10.792Z,14.20
2023-05-30T01:51:46.469Z,14.17
2023-05-30T01:54:18.330Z,14.25
2023-05-30T01:56:49.535Z,14.18
2023-05-30T01:59:21.610Z,13.95
2023-05-30T02:01:52.344Z,13.80
2023-05-30T02:04:19.200Z,13.83
2023-05-30T02:06:47.868Z,14.04
2023-05-30T02:09:16.382Z,13.99
2023-05-30T02:11:43.048Z,13.91
2023-05-30T02:14:10.363Z,13.99
2023-05-30T02:16:38.224Z,13.94
2023-05-30T02:19:04.973Z,13.96
2023-05-30T02:21:31.867Z,13.96
2023-05-30T02:23:58.622Z,13.91
2023-05-30T02:26:27.265Z,13.82
2023-05-30T02:28:55.330Z,13.85
2023-05-30T02:31:21.931Z,13.83
2023-05-30T02:33:52.774Z,13.80
2023-05-30T02:36:19.651Z,13.68
2023-05-30T02:38:47.441Z,13.74
2023-05-30T02:41:16.087Z,13.68
2023-05-30T02:43:43.042Z,13.60
2023-05-30T02:46:09.891Z,13.61
2023-05-30T02:48:37.646Z,13.60
2023-05-30T02:51:04.441Z,13.51
2023-05-30T02:53:31.329Z,13.56
2023-05-30T02:56:00.013Z,13.45
2023-05-30T02:58:27.552Z,13.33
2023-05-30T03:00:56.841Z,13.41
2023-05-30T03:03:28.490Z,13.31
2023-05-30T03:05:55.845Z,13.33
2023-05-30T03:08:26.369Z,13.38
2023-05-30T03:10:54.648Z,13.29
2023-05-30T03:13:21.999Z,13.28
2023-05-30T03:15:49.431Z,13.42
2023-05-30T03:18:17.228Z,13.27
2023-05-30T03:20:45.459Z,13.28
2023-05-30T03:23:12.625Z,13.24
2023-05-30T03:25:39.501Z,13.23
2023-05-30T03:28:08.030Z,13.02
2023-05-30T03:30:36.852Z,13.01
2023-05-30T03:33:06.150Z,13.15
2023-05-30T03:35:35.003Z,13.18
2023-05-30T03:38:09.767Z,13.12
2023-05-30T03:40:36.425Z,13.17
2023-05-30T03:43:04.485Z,13.06
2023-05-30T03:45:31.607Z,12.98
2023-05-30T03:47:59.446Z,13.07
2023-05-30T03:50:26.116Z,13.23
2023-05-30T03:52:52.739Z,13.24
2023-05-30T03:55:23.574Z,13.16
2023-05-30T03:57:50.431Z,13.26
2023-05-30T04:00:18.732Z,13.20
2023-05-30T04:02:46.385Z,13.21
2023-05-30T04:05:14.830Z,13.20
2023-05-30T04:07:41.560Z,13.21
2023-05-30T04:10:21.628Z,13.23
2023-05-30T04:12:48.576Z,13.09
2023-05-30T04:15:19.297Z,13.11
2023-05-30T04:17:46.882Z,13.16
2023-05-30T04:20:19.580Z,13.20
2023-05-30T04:23:05.817Z,13.17
2023-05-30T04:25:32.696Z,13.28
2023-05-30T04:27:59.987Z,13.11
2023-05-30T04:30:28.881Z,13.27
2023-05-30T04:32:57.012Z,13.35
2023-05-30T04:35:24.716Z,13.35
2023-05-30T04:37:55.283Z,13.32
2023-05-30T04:40:25.756Z,13.32
2023-05-30T04:42:53.273Z,13.21
2023-05-30T04:45:21.073Z,13.42
2023-05-30T04:47:49.290Z,13.40
2023-05-30T04:50:17.113Z,13.45
2023-05-30T04:52:45.494Z,13.46
2023-05-30T04:57:56.291Z,13.53
2023-05-30T05:00:23.392Z,13.56
2023-05-30T05:02:52.950Z,13.31
2023-05-30T05:05:20.610Z,13.54
2023-05-30T05:07:48.378Z,13.70
2023-05-30T05:10:15.795Z,13.58
2023-05-30T05:12:44.976Z,13.62
2023-05-30T05:15:18.558Z,13.57
2023-05-30T05:17:49.791Z,13.64
2023-05-30T05:20:16.761Z,13.61
2023-05-30T05:22:44.903Z,13.65
2023-05-30T05:25:11.940Z,13.64
2023-05-30T05:27:41.343Z,13.61
2023-05-30T05:30:17.064Z,13.77
2023-05-30T05:32:52.795Z,13.74
2023-05-30T05:35:19.727Z,13.50
2023-05-30T05:37:47.191Z,13.73
2023-05-30T05:40:15.598Z,13.79
2023-05-30T05:42:44.159Z,13.68
2023-05-30T05:45:14.879Z,13.64
2023-05-30T05:47:42.211Z,13.86
2023-05-30T05:50:12.984Z,13.83
2023-05-30T05:52:40.290Z,14.09
2023-05-30T05:55:09.991Z,14.10
2023-05-30T05:57:41.344Z,14.22
2023-05-30T06:00:09.863Z,14.40
2023-05-30T06:02:38.600Z,14.45
2023-05-30T06:05:10.161Z,14.70
2023-05-30T06:07:40.457Z,14.81
2023-05-30T06:10:14.373Z,15.13
2023-05-30T06:12:43.266Z,15.20
2023-05-30T06:15:10.409Z,15.56
2023-05-30T06:17:38.180Z,15.76
2023-05-30T06:20:05.384Z,15.87
2023-05-30T06:22:35.069Z,15.81
2023-05-30T06:25:01.895Z,15.84
2023-05-30T06:27:30.125Z,15.95
2023-05-30T06:29:57.826Z,16.14
2023-05-30T06:32:25.032Z,16.34
2023-05-30T06:34:53.247Z,16.41
2023-05-30T06:37:22.399Z,16.48
2023-05-30T06:39:53.041Z,16.84
2023-05-30T06:42:25.716Z,16.80
2023-05-30T06:44:55.449Z,17.12
2023-05-30T06:47:27.128Z,17.10
2023-05-30T06:49:55.549Z,17.32
2023-05-30T06:52:22.430Z,17.50
2023-05-30T06:54:49.286Z,17.46
2023-05-30T06:57:16.207Z,17.55
2023-05-30T06:59:45.740Z,17.63
2023-05-30T07:02:24.135Z,17.84
2023-05-30T07:04:53.912Z,17.62
2023-05-30T07:07:21.100Z,17.54
2023-05-30T07:09:48.326Z,17.36
2023-05-30T07:12:20.103Z,17.17
2023-05-30T07:14:50.029Z,17.23
2023-05-30T07:17:19.450Z,17.25
2023-05-30T07:19:51.453Z,17.14
2023-05-30T07:22:18.685Z,17.31
2023-05-30T07:24:47.423Z,17.35
2023-05-30T07:27:16.190Z,17.36
2023-05-30T07:29:46.074Z,17.91
2023-05-30T07:32:16.367Z,18.40
2023-05-30T07:37:29.330Z,18.74
2023-05-30T07:40:00.223Z,18.71
2023-05-30T07:42:43.806Z,19.02
2023-05-30T07:45:16.380Z,19.16
2023-05-30T07:51:05.936Z,20.25
2023-05-30T07:53:45.084Z,20.33
2023-05-30T07:56:32.200Z,20.64
2023-05-30T07:59:05.651Z,20.68
2023-05-30T08:01:34.512Z,20.62
2023-05-30T08:04:20.233Z,20.36
2023-05-30T08:06:47.351Z,20.35
2023-05-30T08:09:22.487Z,20.55
2023-05-30T08:11:55.177Z,20.91
2023-05-30T08:22:56.154Z,21.13
2023-05-30T08:28:11.650Z,21.13
2023-05-30T08:33:24.244Z,20.89
2023-05-30T08:38:38.790Z,21.22
2023-05-30T08:41:05.503Z,21.23
2023-05-30T08:52:24.166Z,20.99
2023-05-30T09:04:00.774Z,21.43
2023-05-30T09:11:57.781Z,21.60
2023-05-30T09:14:36.204Z,21.28
2023-05-30T09:19:48.863Z,20.57
2023-05-30T09:26:36.267Z,20.43
2023-05-30T09:29:47.141Z,20.21
2023-05-30T09:32:17.932Z,20.44
2023-05-30T09:37:49.483Z,20.44
2023-05-30T09:40:24.361Z,20.40
2023-05-30T09:48:20.190Z,20.16
2023-05-30T09:51:17.415Z,20.32
2023-05-30T09:54:08.202Z,20.59
2023-05-30T09:56:54.545Z,20.56
2023-05-30T10:02:21.832Z,20.49
2023-05-30T10:04:51.964Z,20.66
2023-05-30T10:07:32.160Z,20.71
2023-05-30T10:13:03.866Z,20.35
2023-05-30T10:15:31.723Z,20.79
2023-05-30T10:18:07.973Z,20.76
2023-05-30T10:20:38.001Z,20.69
2023-05-30T10:25:58.808Z,20.90
2023-05-30T10:28:30.782Z,21.09
2023-05-30T10:31:00.176Z,21.15
2023-05-30T10:33:56.321Z,21.31
2023-05-30T10:36:25.881Z,21.48
2023-05-30T10:42:09.704Z,21.41
2023-05-30T10:45:00.733Z,21.45
2023-05-30T10:47:46.056Z,21.46
2023-05-30T10:50:23.389Z,21.38
2023-05-30T10:52:50.297Z,21.46
2023-05-30T10:55:18.491Z,21.44
2023-05-30T11:00:35.680Z,21.66
2023-05-30T11:03:06.218Z,21.73
2023-05-30T11:08:21.145Z,21.87
2023-05-30T11:11:05.058Z,21.87
2023-05-30T11:13:32.957Z,21.92
2023-05-30T11:16:05.992Z,21.87
2023-05-30T11:18:40.541Z,21.85
2023-05-30T11:27:17.283Z,21.82
2023-05-30T11:30:03.479Z,21.72
2023-05-30T12:02:53.904Z,22.64
2023-05-30T12:13:53.915Z,22.68
2023-05-30T12:16:39.043Z,22.73
2023-05-30T12:22:08.631Z,22.92
2023-05-30T12:34:58.245Z,22.86
2023-05-30T12:37:40.828Z,22.89
2023-05-30T12:53:59.489Z,22.67
2023-05-30T12:56:35.622Z,22.91
2023-05-30T12:59:12.434Z,22.84
2023-05-30T13:01:47.985Z,23.01
2023-05-30T13:04:20.471Z,23.24
2023-05-30T13:06:48.523Z,23.10
2023-05-30T13:12:00.142Z,22.94
2023-05-30T13:14:31.765Z,22.98
2023-05-30T13:19:56.731Z,23.19
2023-05-30T13:22:25.407Z,23.23
2023-05-30T13:24:59.172Z,23.41
2023-05-30T13:27:26.520Z,23.52
2023-05-30T13:30:04.535Z,23.70
2023-05-30T13:32:34.501Z,23.80
2023-05-30T13:35:04.985Z,23.71
2023-05-30T13:37:33.950Z,23.63
2023-05-30T13:40:08.346Z,23.35
2023-05-30T13:45:21.065Z,23.29
2023-05-30T13:48:03.936Z,23.37
2023-05-30T13:50:37.700Z,23.41
2023-05-30T13:53:13.511Z,23.55
2023-05-30T13:55:40.998Z,23.53
2023-05-30T13:58:10.425Z,23.52
2023-05-30T14:00:39.697Z,23.42
2023-05-30T14:05:52.929Z,23.42
2023-05-30T14:08:23.731Z,23.43
2023-05-30T14:10:51.758Z,23.39
2023-05-30T14:13:24.894Z,23.14
2023-05-30T14:18:42.252Z,23.15
2023-05-30T14:23:51.732Z,23.34
2023-05-30T14:26:21.231Z,23.36
2023-05-30T14:31:39.998Z,23.56
2023-05-30T14:34:10.040Z,23.57
2023-05-30T14:36:41.930Z,23.37
2023-05-30T14:39:10.949Z,23.53
2023-05-30T14:41:40.412Z,23.29
2023-05-30T14:44:29.525Z,23.54
2023-05-30T14:47:01.755Z,23.68
2023-05-30T14:49:31.930Z,23.53
2023-05-30T14:57:29.186Z,23.91
2023-05-30T14:59:56.711Z,23.70
2023-05-30T15:05:24.816Z,23.66
2023-05-30T15:08:00.647Z,23.58
2023-05-30T15:10:31.239Z,23.60
2023-05-30T15:13:01.010Z,23.72
2023-05-30T15:15:28.025Z,23.83
2023-05-30T15:17:57.073Z,24.00
2023-05-30T15:20:23.716Z,23.96
2023-05-30T15:22:50.384Z,23.77
2023-05-30T15:25:17.802Z,23.80
2023-05-30T15:27:47.111Z,23.68
2023-05-30T15:30:14.622Z,23.71
2023-05-30T15:32:43.597Z,23.59
2023-05-30T15:35:12.650Z,23.65
2023-05-30T15:37:40.066Z,23.56
2023-05-30T15:40:09.009Z,23.53
2023-05-30T15:42:37.360Z,23.43
2023-05-30T15:45:06.246Z,23.31
2023-05-30T15:47:40.797Z,23.49
2023-05-30T15:50:15.920Z,23.34
2023-05-30T15:53:24.628Z,23.15
2023-05-30T15:55:59.514Z,23.06
2023-05-30T16:01:11.398Z,23.24
2023-05-30T16:03:39.664Z,23.09
2023-05-30T16:06:10.480Z,22.69
2023-05-30T16:08:37.330Z,23.12
2023-05-30T16:11:06.140Z,23.18
2023-05-30T16:13:34.774Z,23.18
2023-05-30T16:16:04.097Z,23.05
2023-05-30T16:18:34.225Z,23.14
2023-05-30T16:21:05.508Z,23.20
2023-05-30T16:23:32.794Z,23.02
2023-05-30T16:28:45.081Z,22.83
2023-05-30T16:31:20.225Z,22.97
2023-05-30T16:33:48.825Z,22.97
2023-05-30T16:39:14.172Z,22.83
2023-05-30T16:41:50.621Z,22.89
2023-05-30T16:47:00.259Z,22.68
2023-05-30T16:52:11.919Z,22.69
2023-05-30T16:54:41.507Z,22.74
2023-05-30T16:57:11.051Z,22.59
2023-05-30T16:59:49.245Z,22.54
2023-05-30T17:02:18.949Z,22.60
2023-05-30T17:04:56.585Z,22.56
2023-05-30T17:07:33.727Z,22.56
2023-05-30T17:12:59.915Z,22.31
2023-05-30T17:18:10.587Z,22.19
2023-05-30T17:23:28.497Z,22.24
2023-05-30T17:26:17.136Z,22.46
2023-05-30T17:34:05.498Z,22.31
2023-05-30T17:36:32.860Z,22.28
2023-05-30T17:39:02.251Z,22.13
2023-05-30T17:41:29.463Z,22.12
2023-05-30T17:43:58.776Z,22.04
2023-05-30T17:46:43.556Z,21.80
2023-05-30T17:49:14.378Z,21.86
2023-05-30T17:51:45.209Z,21.78
2023-05-30T17:57:01.405Z,21.55
2023-05-30T17:59:39.317Z,21.64
2023-05-30T18:05:25.343Z,21.59
2023-05-30T18:10:36.761Z,21.53
2023-05-30T18:13:26.082Z,21.44
2023-05-30T18:15:57.054Z,21.42
2023-05-30T18:21:09.207Z,21.18
2023-05-30T18:23:39.104Z,21.08
2023-05-30T18:32:08.065Z,21.09
2023-05-30T18:34:38.501Z,21.04
2023-05-30T18:37:07.290Z,20.95
2023-05-30T18:39:40.082Z,20.96
2023-05-30T18:42:10.148Z,20.88
2023-05-30T18:44:43.527Z,20.80
2023-05-30T18:52:35.320Z,20.63
2023-05-30T18:55:01.941Z,20.49
2023-05-30T18:57:39.856Z,20.38
2023-05-30T19:05:43.823Z,20.10
2023-05-30T19:08:11.809Z,20.03
2023-05-30T19:18:54.007Z,19.63
2023-05-30T19:21:23.071Z,19.57
2023-05-30T19:29:18.175Z,19.40
2023-05-30T19:31:45.425Z,19.20
2023-05-30T19:37:00.723Z,19.14
2023-05-30T19:39:32.691Z,19.05
2023-05-30T19:42:03.913Z,19.08
2023-05-30T19:47:18.004Z,19.05
2023-05-30T19:49:54.206Z,18.95
2023-05-30T19:52:23.414Z,18.47
2023-05-30T19:57:35.843Z,18.70
2023-05-30T20:02:45.938Z,18.60
2023-05-30T20:05:14.140Z,18.51
2023-05-30T20:07:41.705Z,18.49
2023-05-30T20:10:12.050Z,18.38
2023-05-30T20:12:49.529Z,18.37
2023-05-30T20:15:17.076Z,18.40
2023-05-30T20:17:48.472Z,18.37
2023-05-30T20:20:16.082Z,18.29
2023-05-30T20:22:42.977Z,18.29
2023-05-30T20:25:15.118Z,18.22
2023-05-30T20:27:47.407Z,18.18
2023-05-30T20:30:17.063Z,18.03
2023-05-30T20:35:34.761Z,17.96
2023-05-30T20:38:01.868Z,17.88
2023-05-30T20:40:28.623Z,17.79
2023-05-30T20:43:04.373Z,17.67
2023-05-30T20:45:35.811Z,17.67
2023-05-30T20:54:22.329Z,17.49
2023-05-30T20:56:50.815Z,17.32
2023-05-30T20:59:24.143Z,17.32
2023-05-30T21:01:55.044Z,17.25
2023-05-30T21:04:39.203Z,17.14
2023-05-30T21:07:06.137Z,17.10
2023-05-30T21:09:33.302Z,17.05
2023-05-30T21:12:05.185Z,16.63
2023-05-30T21:14:41.799Z,16.87
2023-05-30T21:20:03.315Z,16.89
2023-05-30T21:22:30.878Z,16.78
2023-05-30T21:24:59.500Z,16.75
2023-05-30T21:27:26.596Z,16.67
2023-05-30T21:29:57.227Z,16.61
2023-05-30T21:32:25.368Z,16.47
2023-05-30T21:37:41.668Z,16.59
2023-05-30T21:40:18.689Z,16.44
2023-05-30T21:42:48.889Z,16.37
2023-05-30T21:45:15.819Z,16.19
2023-05-30T21:47:46.413Z,16.22
2023-05-30T21:50:16.167Z,16.10
2023-05-30T21:52:43.314Z,16.19
2023-05-30T21:57:59.563Z,16.13
2023-05-30T22:00:31.888Z,16.11
2023-05-30T22:02:59.013Z,16.07
2023-05-30T22:05:36.856Z,16.05
2023-05-30T22:08:06.592Z,15.93
2023-05-30T22:10:33.256Z,15.86
2023-05-30T22:13:00.938Z,15.76
2023-05-30T22:15:29.948Z,15.76
2023-05-30T22:18:11.137Z,15.82
2023-05-30T22:20:41.804Z,15.72
2023-05-30T22:23:37.887Z,15.72
2023-05-30T22:26:11.874Z,15.59
2023-05-30T22:28:39.431Z,15.65
2023-05-30T22:31:08.304Z,15.57
2023-05-30T22:33:37.106Z,15.43
2023-05-30T22:36:03.819Z,15.49
2023-05-30T22:38:30.737Z,15.32
2023-05-30T22:40:58.775Z,15.28
2023-05-30T22:43:25.629Z,15.37
2023-05-30T22:45:52.503Z,15.33
2023-05-30T22:48:19.472Z,15.34
2023-05-30T22:50:47.407Z,15.24
2023-05-30T22:53:14.150Z,15.23
2023-05-30T22:55:40.679Z,15.30
2023-05-30T22:58:09.270Z,15.22
2023-05-30T23:00:41.455Z,15.31
2023-05-30T23:03:15.184Z,15.18
2023-05-30T23:05:46.442Z,15.08
2023-05-30T23:08:16.385Z,15.21
2023-05-30T23:10:45.800Z,15.14
2023-05-30T23:17:54.334Z,15.09
2023-05-30T23:23:16.534Z,15.03
2023-05-30T23:25:45.368Z,15.03
2023-05-30T23:34:08.419Z,14.80
2023-05-30T23:45:22.883Z,14.82
2023-05-30T23:50:46.735Z,14.84
2023-05-30T23:53:18.928Z,14.84
